Startpagina
METAR-TAF:

METAR-TAF

Vliegvelden :

Geilenkirchen, Duitsland

breedte: 50-57-39N, lengte: 006-2-33E, hoogte: 90 m

METAR: ontbreekt

Tijdstip: 06:29 (05:29 UTC)

Verwachting

Dit bericht is 15 uur en het 29 minuten geleden gemaakt, om 14:00 UTC
Verwachting geldig van 05 om 15 UTC tot 06 om 06 UTC
Wind 8 kt uit het noordnoordoosten met uitschieters tot 16 kt
Zicht 10 km of meer
geen wolken onder 1500 m en geen cumulonimbus
Wijzigt naar
van 05 om 17 UTC tot 05 om 20 UTC
Wind 3 kt uit het oostnoordoosten

TAF: ETNG 051400Z 0515/0606 03008G16KT CAVOK BECMG 0517/0520 06003KT

Waarnemingen en weersverwachtingen van meer dan 4000 vliegvelden (METAR en TAF).

De beschikbare stations zijn de gele en rode punten op de kaart.

Ga met uw muis naar het station om de naam te zien.

Klik dan om waarnemingen en weersverwachtingen te zien.

kaart wijzigen: klik op de groene knoppen met een zwart kruis om in te zoomen, op de groene knop met een streepje om uit te zoomen of op de groene pijlen voor aangrenzende kaarten.


METAR-TAF: